Nearby METAR Reports

 

KSJC - San Jose, California, USA
Distance from station: NE 9mi, 14km
Updated: Fri, 20-Oct-2017 11:53am PDT
Mostly cloudy
Mostly cloudy
 Wind from NW
Wind: NW 8 mph , 13 km/h
Temperature: 63°F , 17°C
Dew Point: 46°F , 8°C
Humidity: 56%
Barometer: 30.12 inHg , 1020 hPa
Clouds: Mostly cloudy
Visibility: 10 miles , 16 km
Cloud details: Few Clouds 900 ft
Partly cloudy 1900 ft
Mostly cloudy 3500 ft
2017/10/20 18:53 KSJC 201853Z 31007KT 10SM FEW009 SCT019 BKN035 17/08 A3012 RMK AO2 SLP197 T01670083
KNUQ - Moffett Nas/Mtn, California, USA
Distance from station: N 9mi, 14km
Updated: Fri, 20-Oct-2017 11:56am PDT
Few Clouds
Few Clouds
 Wind from N
Wind: N 9 mph , 15 km/h
Temperature: 61°F , 16°C
Dew Point: 46°F , 8°C
Humidity: 59%
Barometer: 30.12 inHg , 1020 hPa
Clouds: Few Clouds
Visibility: 9 miles , 14 km
Cloud details: Few Clouds 3800 ft
2017/10/20 18:56 KNUQ 201856Z 35008KT 9SM FEW038 16/08 A3012 RMK AO2 SLP203 T01610083
 
KPAO - Palo Alto, California, USA
Distance from station: NNW 14mi, 23km
Updated: Fri, 20-Oct-2017 11:47am PDT
Mostly cloudy
Mostly cloudy
 Wind from N
Wind: N 10 mph , 17 km/h
Temperature: 61°F , 16°C
Dew Point: 50°F , 10°C
Humidity: 68%
Barometer: 30.12 inHg , 1020 hPa
Clouds: Mostly cloudy
Visibility: 10 miles , 16 km
Cloud details: Mostly cloudy 2000 ft
2017/10/20 18:47 KPAO 201847Z 35009KT 10SM BKN020 16/10 A3012
KRHV - San Jose/Reid, California, USA
Distance from station: ENE 12mi, 19km
Updated: Fri, 20-Oct-2017 11:47am PDT
Mostly cloudy
Mostly cloudy
 Wind from WNW
Wind: WNW 12 mph , 19 km/h
Temperature: 61°F , 16°C
Dew Point: 48°F , 9°C
Humidity: 63%
Barometer: 30.15 inHg , 1021 hPa
Clouds: Mostly cloudy
Visibility: 10 miles , 16 km
Cloud details: Mostly cloudy 3000 ft
2017/10/20 18:47 KRHV 201847Z 30010KT 10SM BKN030 16/09 A3015
 
KOAK - Oakland, California, USA
Distance from station: NNW 31mi, 50km
Updated: Fri, 20-Oct-2017 11:53am PDT
Mostly cloudy
Mostly cloudy
 Wind from W
Wind: W 12 mph , 19 km/h
Temperature: 61°F , 16°C
Dew Point: 48°F , 9°C
Humidity: 63%
Barometer: 30.12 inHg , 1020 hPa
Clouds: Mostly cloudy
Visibility: 10 miles , 16 km
Cloud details: Few Clouds 1600 ft
Partly cloudy 3500 ft
Mostly cloudy 12000 ft
2017/10/20 18:53 KOAK 201853Z 27010KT 10SM FEW016 SCT035 BKN120 16/09 A3012 RMK AO2 SLP198 T01610094
KSQL - San Carlos Airpo, California, USA
Distance from station: NW 21mi, 34km
Updated: Fri, 20-Oct-2017 11:50am PDT

 
Visibility: 2 miles , 3 km
2017/10/20 18:50 KSQL 201850Z 28010 10SM SCT039 BKN046 16/09 A3013
 
KSFO - San Francisco, California, USA
Distance from station: NW 30mi, 49km
Updated: Fri, 20-Oct-2017 11:56am PDT
Mostly cloudy
Mostly cloudy
 Wind from W
Wind: W 10 mph , 17 km/h
Temperature: 61°F , 16°C
Dew Point: 45°F , 7°C
Humidity: 55%
Barometer: 30.11 inHg , 1019.6 hPa
Clouds: Mostly cloudy
Visibility: 10 miles , 16 km
Cloud details: Partly cloudy 3000 ft
Mostly cloudy 12000 ft
2017/10/20 18:56 KSFO 201856Z 28009KT 10SM SCT030 BKN120 16/07 A3011 RMK AO2 SLP197 T01610072
KE16 - San Martin, California, USA
Distance from station: ESE 27mi, 43km
Updated: Fri, 20-Oct-2017 12:35pm PDT
Mostly cloudy
Mostly cloudy
 Wind from NW
Wind: NW 6 mph , 9 km/h
Temperature: 63°F , 17°C
Dew Point: 45°F , 7°C
Humidity: 52%
Barometer: 30.13 inHg , 1020.3 hPa
Clouds: Mostly cloudy
Visibility: 10 miles , 16 km
Cloud details: Partly cloudy 5000 ft
Mostly cloudy 6000 ft
2017/10/20 19:35 KE16 201935Z AUTO 31005KT 10SM SCT050 BKN060 17/07 A3013 RMK AO2
 
KWVI - Watsonville, California, USA
Distance from station: SSE 27mi, 44km
Updated: Fri, 20-Oct-2017 11:53am PDT
Clear
Clear
 Wind from WSW
Wind: WSW 12 mph , 19 km/h
Temperature: 61°F , 16°C
Dew Point: 55°F , 13°C
Humidity: 83%
Barometer: 30.12 inHg , 1020 hPa
Clouds: Clear
Visibility: 10 miles , 16 km
2017/10/20 18:53 KWVI 201853Z AUTO 24010KT 10SM CLR 16/13 A3012 RMK AO2 SLP199 T01560133 $
KHAF - Half Moon Bay, California, USA
Distance from station: WNW 31mi, 50km
Updated: Fri, 20-Oct-2017 12:35pm PDT
Haze, Clear
Haze, Clear
 Wind from W
Wind: W 9 mph , 15 km/h
Temperature: 59°F , 15°C
Dew Point: 52°F , 11°C
Humidity: 77%
Barometer: 30.11 inHg , 1019.6 hPa
Summary: Haze
Clouds: Clear
Visibility: 5 miles , 8 km
2017/10/20 19:35 KHAF 201935Z AUTO 28008KT 5SM HZ CLR 15/11 A3011 RMK AO2
 
KHWD - Hayward, California, USA
Distance from station: N 28mi, 44km
Updated: Fri, 20-Oct-2017 11:54am PDT
Mostly cloudy
Mostly cloudy
 Wind from WNW
Wind: WNW 10 mph , 17 km/h
Temperature: 63°F , 17°C
Dew Point: 45°F , 7°C
Humidity: 52%
Barometer: 30.11 inHg , 1019.6 hPa
Clouds: Mostly cloudy
Visibility: 10 miles , 16 km
Cloud details: Mostly cloudy 2700 ft
2017/10/20 18:54 KHWD 201854Z 29009KT 10SM BKN027 17/07 A3011 RMK AO2 SLP207 T01670072 PNO
KLVK - Livermore, California, USA
Distance from station: NNE 31mi, 51km
Updated: Fri, 20-Oct-2017 11:53am PDT
Mostly cloudy
Mostly cloudy
 Wind from WNW
Wind: WNW 5 mph , 7 km/h
Temperature: 59°F , 15°C
Dew Point: 45°F , 7°C
Humidity: 59%
Barometer: 30.10 inHg , 1019.3 hPa
Clouds: Mostly cloudy
Visibility: 10 miles , 16 km
Cloud details: Partly cloudy 3800 ft
Mostly cloudy 4600 ft
2017/10/20 18:53 KLVK 201853Z 30004KT 10SM SCT038 BKN046 15/07 A3010 RMK AO2 SLP192 T01500067